Time;durP1;ratioP1;P1;durP2;ratioP2;P2;SDS_P1;SDS_P2;PMS_P1;PMS_P2;Temp;Humidity;BMP_temperature;BMP_pressure;BME280_temperature;BME280_humidity;BME280_pressure;Samples;Min_cycle;Max_cycle;Signal;HPM_P1;HPM_P2
2023/03/24 00:02:00;;;;;;;54.05;32.72;;;;;;;;;;6306722;22;20019;-61
2023/03/24 00:04:28;;;;;;;49.05;31.83;;;;;;;;;;6307012;22;20034;-62
2023/03/24 00:06:56;;;;;;;49.25;33.22;;;;;;;;;;6306946;22;20060;-61
2023/03/24 00:09:23;;;;;;;56.42;35.63;;;;;;;;;;6307035;22;20019;-61
2023/03/24 00:11:50;;;;;;;56.25;36.13;;;;;;;;;;6306986;22;20011;-61
2023/03/24 00:14:18;;;;;;;54.70;36.30;;;;;;;;;;6306852;22;20015;-62
2023/03/24 00:16:45;;;;;;;51.85;34.45;;;;;;;;;;6306903;22;20494;-61
2023/03/24 00:19:13;;;;;;;55.22;34.72;;;;;;;;;;6306963;22;20046;-61
2023/03/24 00:21:41;;;;;;;51.13;34.05;;;;;;;;;;6306831;22;20042;-61
2023/03/24 00:24:10;;;;;;;58.95;35.88;;;;;;;;;;6306896;22;20072;-61
2023/03/24 00:26:39;;;;;;;61.45;37.17;;;;;;;;;;6306597;22;20336;-62
2023/03/24 00:29:07;;;;;;;59.40;37.58;;;;;;;;;;6306820;22;20016;-61
2023/03/24 00:31:38;;;;;;;59.58;37.78;;;;;;;;;;6279363;22;20457;-61
2023/03/24 00:34:07;;;;;;;61.15;36.92;;;;;;;;;;6306732;22;20019;-61
2023/03/24 00:36:35;;;;;;;63.28;38.72;;;;;;;;;;6279441;22;20015;-61
2023/03/24 00:39:05;;;;;;;63.55;40.28;;;;;;;;;;6279492;22;20468;-61
2023/03/24 00:41:33;;;;;;;66.57;39.90;;;;;;;;;;6279963;22;20022;-61
2023/03/24 00:44:05;;;;;;;65.25;40.13;;;;;;;;;;6306826;22;20035;-61
2023/03/24 00:46:34;;;;;;;66.35;39.60;;;;;;;;;;6306841;22;20371;-60
2023/03/24 00:49:04;;;;;;;64.70;40.65;;;;;;;;;;6306788;22;20056;-61
2023/03/24 00:51:38;;;;;;;64.45;39.05;;;;;;;;;;6306736;22;20019;-61
2023/03/24 00:54:08;;;;;;;61.42;38.67;;;;;;;;;;6306692;22;20022;-62
2023/03/24 00:56:39;;;;;;;65.05;39.40;;;;;;;;;;6306556;22;20345;-62
2023/03/24 00:59:08;;;;;;;61.78;37.15;;;;;;;;;;6279383;22;20039;-60
2023/03/24 01:01:39;;;;;;;60.88;37.63;;;;;;;;;;6307077;22;20064;-61
2023/03/24 01:04:08;;;;;;;63.78;37.72;;;;;;;;;;6306817;22;20031;-61
2023/03/24 01:06:38;;;;;;;55.42;36.30;;;;;;;;;;6306753;22;20453;-61
2023/03/24 01:09:06;;;;;;;56.88;35.67;;;;;;;;;;6279296;22;20015;-62
2023/03/24 01:11:38;;;;;;;61.33;38.40;;;;;;;;;;6306652;22;20015;-61
2023/03/24 01:14:08;;;;;;;62.45;37.47;;;;;;;;;;6279240;22;20506;-62
2023/03/24 01:16:36;;;;;;;58.42;37.30;;;;;;;;;;6306624;22;20022;-62
2023/03/24 01:19:05;;;;;;;59.60;37.47;;;;;;;;;;6279150;22;20041;-62
2023/03/24 01:21:35;;;;;;;60.67;37.15;;;;;;;;;;6254237;22;20019;-61
2023/03/24 01:24:03;;;;;;;64.30;35.28;;;;;;;;;;6306475;22;20072;-61
2023/03/24 01:26:31;;;;;;;59.03;37.00;;;;;;;;;;6306504;22;20023;-61
2023/03/24 01:28:59;;;;;;;59.25;36.92;;;;;;;;;;6306481;22;20012;-61
2023/03/24 01:31:26;;;;;;;58.92;36.40;;;;;;;;;;6279837;22;20015;-62
2023/03/24 01:33:54;;;;;;;59.95;37.03;;;;;;;;;;6279061;22;20389;-60
2023/03/24 01:36:21;;;;;;;62.90;37.72;;;;;;;;;;6306545;22;20023;-62
2023/03/24 01:38:49;;;;;;;59.38;36.13;;;;;;;;;;6279929;22;20643;-60
2023/03/24 01:41:17;;;;;;;57.33;36.83;;;;;;;;;;6280694;22;20019;-62
2023/03/24 01:43:44;;;;;;;64.20;36.80;;;;;;;;;;6280888;22;20106;-61
2023/03/24 01:46:17;;;;;;;59.72;36.70;;;;;;;;;;6281054;22;20019;-62
2023/03/24 01:48:48;;;;;;;58.58;35.70;;;;;;;;;;6280955;22;20042;-60
2023/03/24 01:51:15;;;;;;;58.15;35.85;;;;;;;;;;6308314;22;20015;-62
2023/03/24 01:53:47;;;;;;;62.75;35.83;;;;;;;;;;6280754;22;20019;-61
2023/03/24 01:56:17;;;;;;;58.38;35.28;;;;;;;;;;6280902;22;20043;-62
2023/03/24 01:58:47;;;;;;;57.88;34.75;;;;;;;;;;6280703;22;20030;-62
2023/03/24 02:01:25;;;;;;;58.45;34.10;;;;;;;;;;6280915;22;20011;-62
2023/03/24 02:04:16;;;;;;;56.47;35.22;;;;;;;;;;6295294;22;20023;-61
2023/03/24 02:06:44;;;;;;;57.60;34.45;;;;;;;;;;6280751;22;20445;-61
2023/03/24 02:09:13;;;;;;;54.03;34.85;;;;;;;;;;6280847;22;20065;-61
2023/03/24 02:11:41;;;;;;;60.50;35.50;;;;;;;;;;6280811;22;20022;-61
2023/03/24 02:14:10;;;;;;;57.90;35.33;;;;;;;;;;6308116;22;20064;-62
2023/03/24 02:16:44;;;;;;;59.58;35.50;;;;;;;;;;6280848;22;20023;-62
2023/03/24 02:19:13;;;;;;;63.67;38.25;;;;;;;;;;6280704;22;20106;-61
2023/03/24 02:22:00;;;;;;;62.90;37.47;;;;;;;;;;6255504;22;20015;-61
2023/03/24 02:24:46;;;;;;;62.20;35.63;;;;;;;;;;6308233;22;20327;-61
2023/03/24 02:27:32;;;;;;;56.80;34.55;;;;;;;;;;6280573;22;20462;-61
2023/03/24 02:30:03;;;;;;;62.85;35.80;;;;;;;;;;6280706;22;20461;-62
2023/03/24 02:32:51;;;;;;;57.28;34.28;;;;;;;;;;6280745;22;20110;-61
2023/03/24 02:35:24;;;;;;;59.65;34.85;;;;;;;;;;6307913;22;20433;-62
2023/03/24 02:38:10;;;;;;;50.17;31.90;;;;;;;;;;6307805;22;20030;-61
2023/03/24 02:40:38;;;;;;;51.22;30.27;;;;;;;;;;6307426;22;20012;-62
2023/03/24 02:43:22;;;;;;;51.53;30.65;;;;;;;;;;6280522;22;20099;-62
2023/03/24 02:45:50;;;;;;;53.97;30.63;;;;;;;;;;6280692;22;20064;-62
2023/03/24 02:48:21;;;;;;;53.70;30.83;;;;;;;;;;6280350;22;20106;-61
2023/03/24 02:50:51;;;;;;;46.20;28.70;;;;;;;;;;6280251;22;20449;-61
2023/03/24 02:53:38;;;;;;;47.05;28.55;;;;;;;;;;6280217;22;20015;-61
2023/03/24 02:56:38;;;;;;;51.70;29.10;;;;;;;;;;6297683;22;20092;-62
2023/03/24 02:59:21;;;;;;;43.85;27.52;;;;;;;;;;6280443;22;20099;-61
2023/03/24 03:02:14;;;;;;;48.47;27.63;;;;;;;;;;6280270;22;20034;-61
2023/03/24 03:04:53;;;;;;;46.13;29.20;;;;;;;;;;6307535;22;20452;-62
2023/03/24 03:07:23;;;;;;;49.40;28.75;;;;;;;;;;6307535;22;20039;-62
2023/03/24 03:10:02;;;;;;;50.78;29.20;;;;;;;;;;6280036;22;20021;-62
2023/03/24 03:12:31;;;;;;;46.83;28.33;;;;;;;;;;6280117;22;20449;-61
2023/03/24 03:15:17;;;;;;;46.38;28.73;;;;;;;;;;6280033;22;20026;-61
2023/03/24 03:18:17;;;;;;;46.75;28.00;;;;;;;;;;6280119;22;20518;-62
2023/03/24 03:20:51;;;;;;;41.17;26.13;;;;;;;;;;6215273;22;20060;-61
2023/03/24 03:23:24;;;;;;;45.10;27.83;;;;;;;;;;6280014;22;20024;-61
2023/03/24 03:25:55;;;;;;;44.75;26.27;;;;;;;;;;6279687;22;20027;-61
2023/03/24 03:28:28;;;;;;;48.33;27.48;;;;;;;;;;6306959;22;20011;-61
2023/03/24 03:31:05;;;;;;;48.35;28.75;;;;;;;;;;6307295;22;20070;-62
2023/03/24 03:33:38;;;;;;;48.60;27.05;;;;;;;;;;6307132;22;20085;-62
2023/03/24 03:36:09;;;;;;;45.15;26.85;;;;;;;;;;6279894;22;20023;-61
2023/03/24 03:38:45;;;;;;;42.63;26.13;;;;;;;;;;6279897;22;20015;-62
2023/03/24 03:41:15;;;;;;;42.55;26.42;;;;;;;;;;6279673;22;20047;-61
2023/03/24 03:43:43;;;;;;;45.20;27.10;;;;;;;;;;6279794;22;20061;-62
2023/03/24 03:46:11;;;;;;;46.60;26.60;;;;;;;;;;6279905;22;20441;-62
2023/03/24 03:48:39;;;;;;;49.55;27.98;;;;;;;;;;6279780;22;20019;-61
2023/03/24 03:51:08;;;;;;;44.35;27.48;;;;;;;;;;6279964;22;20022;-61
2023/03/24 03:53:49;;;;;;;46.97;26.77;;;;;;;;;;6279738;22;20441;-61
2023/03/24 03:56:18;;;;;;;45.42;27.13;;;;;;;;;;6307139;22;20086;-61
2023/03/24 03:58:57;;;;;;;46.00;29.05;;;;;;;;;;6279727;22;20049;-61
2023/03/24 04:01:26;;;;;;;58.40;32.25;;;;;;;;;;6306939;22;20495;-61
2023/03/24 04:04:25;;;;;;;56.88;29.77;;;;;;;;;;6305948;22;20522;-61
2023/03/24 04:07:24;;;;;;;51.08;28.95;;;;;;;;;;6279708;22;20026;-61
2023/03/24 04:10:26;;;;;;;50.53;27.77;;;;;;;;;;6279695;22;20021;-61
2023/03/24 04:13:09;;;;;;;46.42;27.77;;;;;;;;;;6279612;22;20088;-62
2023/03/24 04:15:57;;;;;;;59.25;32.40;;;;;;;;;;6306913;22;20344;-61
2023/03/24 04:18:57;;;;;;;60.80;33.47;;;;;;;;;;6306899;22;20025;-62
2023/03/24 04:21:27;;;;;;;56.72;33.85;;;;;;;;;;6307168;22;20015;-62
2023/03/24 04:24:01;;;;;;;60.10;33.40;;;;;;;;;;6279385;22;20330;-61
2023/03/24 04:26:47;;;;;;;62.15;33.75;;;;;;;;;;6279617;22;20102;-61
2023/03/24 04:29:16;;;;;;;;;;;;;;;;;;6280258;22;20019;-62
2023/03/24 04:31:53;;;;;;;60.50;34.47;;;;;;;;;;6279339;22;19914;-61
2023/03/24 04:34:43;;;;;;;57.25;30.90;;;;;;;;;;6279296;22;20462;-61
2023/03/24 04:37:41;;;;;;;54.85;30.75;;;;;;;;;;6286136;22;20030;-61
2023/03/24 04:40:19;;;;;;;45.78;28.27;;;;;;;;;;6279228;22;20069;-61
2023/03/24 04:42:51;;;;;;;51.03;28.17;;;;;;;;;;6279452;22;20027;-61
2023/03/24 04:45:24;;;;;;;54.37;29.43;;;;;;;;;;6279393;22;20023;-61
2023/03/24 04:48:12;;;;;;;47.28;26.13;;;;;;;;;;6306699;22;20033;-60
2023/03/24 04:51:03;;;;;;;45.35;27.02;;;;;;;;;;6305159;22;20361;-61
2023/03/24 04:53:50;;;;;;;47.35;28.70;;;;;;;;;;6306281;22;20051;-61
2023/03/24 04:56:34;;;;;;;41.90;25.63;;;;;;;;;;6279319;22;20383;-62
2023/03/24 04:59:11;;;;;;;39.50;26.17;;;;;;;;;;6279286;22;20035;-61
2023/03/24 05:01:39;;;;;;;44.65;27.30;;;;;;;;;;6279218;22;20023;-61
2023/03/24 05:04:26;;;;;;;44.97;28.23;;;;;;;;;;6279291;22;20019;-62
2023/03/24 05:06:58;;;;;;;45.53;29.25;;;;;;;;;;6279154;22;20471;-61
2023/03/24 05:09:26;;;;;;;40.13;24.30;;;;;;;;;;6279254;22;20015;-61
2023/03/24 05:11:54;;;;;;;35.83;25.27;;;;;;;;;;6279249;22;20026;-61
2023/03/24 05:14:23;;;;;;;30.13;21.42;;;;;;;;;;6280548;22;20022;-61
2023/03/24 05:16:51;;;;;;;28.67;22.63;;;;;;;;;;6281109;22;20061;-61
2023/03/24 05:19:20;;;;;;;30.77;22.30;;;;;;;;;;6281290;22;20080;-62
2023/03/24 05:21:50;;;;;;;33.28;22.13;;;;;;;;;;6281108;22;20412;-62
2023/03/24 05:24:18;;;;;;;26.80;20.48;;;;;;;;;;6280890;22;20043;-62
2023/03/24 05:26:45;;;;;;;27.35;19.80;;;;;;;;;;6281073;22;20023;-62
2023/03/24 05:29:18;;;;;;;26.88;20.73;;;;;;;;;;6281077;22;20046;-62
2023/03/24 05:31:46;;;;;;;27.85;19.98;;;;;;;;;;6281112;22;20034;-62
2023/03/24 05:34:16;;;;;;;25.50;18.00;;;;;;;;;;6280963;22;20019;-62
2023/03/24 05:36:55;;;;;;;24.60;18.38;;;;;;;;;;6281014;22;20072;-62
2023/03/24 05:39:23;;;;;;;22.25;17.70;;;;;;;;;;6281013;22;20053;-63
2023/03/24 05:42:05;;;;;;;25.48;17.77;;;;;;;;;;6280832;22;20074;-62
2023/03/24 05:44:33;;;;;;;25.17;16.88;;;;;;;;;;6308433;22;20050;-62
2023/03/24 05:47:07;;;;;;;24.67;16.97;;;;;;;;;;6280887;22;20457;-62
2023/03/24 05:49:35;;;;;;;28.17;16.73;;;;;;;;;;6280802;22;20094;-62
2023/03/24 05:52:03;;;;;;;21.38;16.80;;;;;;;;;;6280875;22;20026;-61
2023/03/24 05:54:32;;;;;;;23.33;17.90;;;;;;;;;;6280716;22;20445;-62
2023/03/24 05:57:12;;;;;;;26.70;15.85;;;;;;;;;;6280815;22;20080;-62
2023/03/24 06:00:00;;;;;;;22.55;16.65;;;;;;;;;;6307952;22;20054;-62
2023/03/24 06:02:46;;;;;;;23.63;17.83;;;;;;;;;;6308008;22;20065;-62
2023/03/24 06:05:41;;;;;;;21.88;17.13;;;;;;;;;;6304716;22;20023;-62
2023/03/24 06:08:09;;;;;;;19.85;15.13;;;;;;;;;;6280886;22;20448;-63
2023/03/24 06:10:37;;;;;;;22.67;15.18;;;;;;;;;;6280535;22;20029;-62
2023/03/24 06:13:07;;;;;;;17.92;14.80;;;;;;;;;;6280202;22;20094;-62
2023/03/24 06:15:38;;;;;;;19.90;15.05;;;;;;;;;;6280442;22;20025;-62
2023/03/24 06:18:25;;;;;;;17.83;13.93;;;;;;;;;;6285697;22;20029;-62
2023/03/24 06:20:59;;;;;;;15.18;12.40;;;;;;;;;;6280815;22;20023;-62
2023/03/24 06:23:29;;;;;;;16.38;12.32;;;;;;;;;;6280629;22;20042;-63
2023/03/24 06:26:07;;;;;;;18.15;13.13;;;;;;;;;;6280615;22;20045;-62
2023/03/24 06:28:38;;;;;;;13.43;10.98;;;;;;;;;;6280730;22;20026;-62
2023/03/24 06:31:18;;;;;;;14.40;11.55;;;;;;;;;;6280582;22;20221;-62
2023/03/24 06:33:47;;;;;;;13.00;11.60;;;;;;;;;;6280432;22;20069;-62
2023/03/24 06:36:15;;;;;;;14.73;11.65;;;;;;;;;;6280625;22;20019;-62
2023/03/24 06:38:44;;;;;;;13.15;11.10;;;;;;;;;;6280704;22;20096;-63
2023/03/24 06:41:16;;;;;;;12.52;11.18;;;;;;;;;;6280224;22;20019;-63
2023/03/24 06:43:44;;;;;;;12.48;10.38;;;;;;;;;;6280492;22;20375;-63
2023/03/24 06:46:11;;;;;;;11.82;10.48;;;;;;;;;;6280526;22;20023;-63
2023/03/24 06:48:42;;;;;;;13.40;10.40;;;;;;;;;;6280170;22;20345;-63
2023/03/24 06:51:10;;;;;;;12.85;10.95;;;;;;;;;;6307686;22;20016;-62
2023/03/24 06:53:40;;;;;;;11.88;10.05;;;;;;;;;;6280381;22;20471;-62
2023/03/24 06:56:07;;;;;;;12.73;9.88;;;;;;;;;;6280295;22;20019;-62
2023/03/24 06:58:41;;;;;;;12.75;10.23;;;;;;;;;;6307789;22;20015;-63
2023/03/24 07:01:15;;;;;;;12.50;10.15;;;;;;;;;;6280233;22;20019;-62
2023/03/24 07:04:06;;;;;;;13.48;10.10;;;;;;;;;;6302794;22;20058;-63
2023/03/24 07:06:33;;;;;;;11.25;10.13;;;;;;;;;;6307650;22;20023;-62
2023/03/24 07:09:18;;;;;;;13.38;9.73;;;;;;;;;;6280297;22;20015;-63
2023/03/24 07:11:46;;;;;;;15.68;10.52;;;;;;;;;;6280187;22;20019;-62
2023/03/24 07:14:14;;;;;;;12.23;9.70;;;;;;;;;;6280032;22;20062;-63
2023/03/24 07:16:43;;;;;;;11.18;9.30;;;;;;;;;;6280246;22;20099;-63
2023/03/24 07:19:40;;;;;;;13.35;9.00;;;;;;;;;;6231739;22;20396;-63
2023/03/24 07:22:25;;;;;;;10.43;9.32;;;;;;;;;;6307475;22;20029;-63
2023/03/24 07:25:22;;;;;;;11.15;9.32;;;;;;;;;;6223725;22;20040;-63
2023/03/24 07:27:56;;;;;;;12.77;8.68;;;;;;;;;;6280026;22;20022;-63
2023/03/24 07:30:25;;;;;;;10.48;9.40;;;;;;;;;;6280108;22;20049;-63
2023/03/24 07:33:09;;;;;;;12.05;9.20;;;;;;;;;;6280058;22;20026;-63
2023/03/24 07:35:38;;;;;;;10.20;8.75;;;;;;;;;;6279751;22;20353;-63
2023/03/24 07:38:09;;;;;;;10.80;9.63;;;;;;;;;;6279888;22;20391;-62
2023/03/24 07:40:37;;;;;;;12.73;9.50;;;;;;;;;;6279785;22;20027;-62
2023/03/24 07:43:04;;;;;;;13.65;9.80;;;;;;;;;;6280004;22;20020;-62
2023/03/24 07:46:02;;;;;;;10.68;9.00;;;;;;;;;;6274192;22;20026;-63
2023/03/24 07:48:32;;;;;;;11.77;9.45;;;;;;;;;;6279612;22;20026;-63
2023/03/24 07:51:00;;;;;;;11.68;9.73;;;;;;;;;;6279756;22;20019;-62
2023/03/24 07:53:47;;;;;;;10.25;8.98;;;;;;;;;;6279682;22;20022;-61
2023/03/24 07:56:24;;;;;;;11.52;9.27;;;;;;;;;;6279721;22;20102;-63
2023/03/24 07:58:56;;;;;;;18.23;9.52;;;;;;;;;;6279732;22;20045;-62
2023/03/24 08:01:50;;;;;;;12.87;9.63;;;;;;;;;;6285394;22;20468;-61
2023/03/24 08:04:44;;;;;;;11.57;8.50;;;;;;;;;;6306279;22;20441;-62
2023/03/24 08:07:30;;;;;;;10.70;9.02;;;;;;;;;;6307056;22;20030;-62
2023/03/24 08:09:57;;;;;;;14.98;9.45;;;;;;;;;;6307146;22;20082;-63
2023/03/24 08:12:25;;;;;;;12.40;9.10;;;;;;;;;;6306707;22;20038;-62
2023/03/24 08:14:52;;;;;;;12.77;8.27;;;;;;;;;;6279690;22;20019;-61
2023/03/24 08:17:20;;;;;;;13.77;9.77;;;;;;;;;;6306779;22;20054;-62
2023/03/24 08:19:48;;;;;;;11.65;8.68;;;;;;;;;;6306963;22;20015;-62
2023/03/24 08:22:27;;;;;;;10.90;8.23;;;;;;;;;;6306874;22;20016;-62
2023/03/24 08:24:54;;;;;;;13.43;9.50;;;;;;;;;;6279506;22;20397;-63
2023/03/24 08:27:22;;;;;;;13.00;10.10;;;;;;;;;;6306969;22;20011;-63
2023/03/24 08:29:50;;;;;;;13.60;8.75;;;;;;;;;;6306836;22;20026;-62
2023/03/24 08:32:17;;;;;;;11.65;8.85;;;;;;;;;;6306789;22;20433;-62
2023/03/24 08:34:45;;;;;;;10.05;8.40;;;;;;;;;;6306716;22;20011;-63
2023/03/24 08:37:12;;;;;;;13.23;8.07;;;;;;;;;;6306870;22;20015;-62
2023/03/24 08:39:40;;;;;;;11.32;8.70;;;;;;;;;;6306827;22;20456;-63
2023/03/24 08:42:07;;;;;;;15.52;9.93;;;;;;;;;;6306299;22;20021;-63
2023/03/24 08:44:35;;;;;;;11.40;7.97;;;;;;;;;;6306805;22;20022;-62
2023/03/24 08:47:03;;;;;;;9.18;7.70;;;;;;;;;;6307102;22;20473;-62
2023/03/24 08:49:30;;;;;;;11.82;8.15;;;;;;;;;;6308812;22;20018;-62
2023/03/24 08:51:58;;;;;;;21.67;18.42;;;;;;;;;;6308897;22;20084;-62
2023/03/24 08:54:25;;;;;;;12.10;9.52;;;;;;;;;;6308845;22;20041;-62
2023/03/24 08:56:53;;;;;;;10.48;8.38;;;;;;;;;;6308645;22;20015;-62
2023/03/24 08:59:20;;;;;;;12.48;8.52;;;;;;;;;;6308907;22;20426;-62
2023/03/24 09:01:48;;;;;;;9.75;7.90;;;;;;;;;;6309107;22;20043;-62
2023/03/24 09:04:15;;;;;;;10.57;7.40;;;;;;;;;;6308591;22;20041;-62
2023/03/24 09:06:43;;;;;;;13.35;7.90;;;;;;;;;;6308785;22;20094;-62
2023/03/24 09:09:10;;;;;;;9.27;7.95;;;;;;;;;;6308861;22;20329;-62
2023/03/24 09:11:38;;;;;;;12.52;7.32;;;;;;;;;;6308637;22;20046;-63
2023/03/24 09:14:05;;;;;;;9.88;6.97;;;;;;;;;;6308591;22;20015;-64
2023/03/24 09:16:33;;;;;;;9.00;7.40;;;;;;;;;;6308501;22;20387;-62
2023/03/24 09:19:01;;;;;;;9.07;7.25;;;;;;;;;;6308599;22;20441;-62
2023/03/24 09:21:28;;;;;;;11.23;7.82;;;;;;;;;;6308515;22;20368;-62
2023/03/24 09:23:55;;;;;;;9.25;7.75;;;;;;;;;;6308578;22;20068;-62
2023/03/24 09:26:23;;;;;;;13.00;7.50;;;;;;;;;;6308495;22;20069;-63
2023/03/24 09:28:50;;;;;;;9.30;7.32;;;;;;;;;;6281108;22;20023;-63
2023/03/24 09:31:18;;;;;;;10.70;7.03;;;;;;;;;;6308393;22;20445;-63
2023/03/24 09:33:46;;;;;;;9.43;7.55;;;;;;;;;;6308452;22;20026;-63
2023/03/24 09:36:13;;;;;;;11.93;10.05;;;;;;;;;;6308502;22;20019;-64
2023/03/24 09:38:40;;;;;;;16.02;11.77;;;;;;;;;;6308522;22;20050;-62
2023/03/24 09:41:16;;;;;;;9.18;7.72;;;;;;;;;;6308276;22;20015;-62
2023/03/24 09:43:47;;;;;;;8.57;7.20;;;;;;;;;;6308503;22;20496;-62
2023/03/24 09:46:21;;;;;;;10.90;7.18;;;;;;;;;;6308513;22;20015;-62
2023/03/24 09:48:52;;;;;;;9.50;7.35;;;;;;;;;;6308529;22;20016;-61
2023/03/24 09:51:23;;;;;;;9.77;6.97;;;;;;;;;;6308472;22;20019;-62
2023/03/24 09:53:59;;;;;;;8.95;7.97;;;;;;;;;;6308313;22;20341;-62
2023/03/24 09:56:28;;;;;;;9.40;7.65;;;;;;;;;;6308221;22;20046;-63
2023/03/24 09:59:01;;;;;;;9.80;6.93;;;;;;;;;;6307971;22;20065;-63
2023/03/24 10:01:29;;;;;;;10.52;7.55;;;;;;;;;;6308382;22;20022;-62
2023/03/24 10:03:58;;;;;;;8.88;7.05;;;;;;;;;;6308178;22;20463;-62
2023/03/24 10:06:28;;;;;;;8.98;6.55;;;;;;;;;;6307959;22;20035;-62
2023/03/24 10:08:55;;;;;;;7.82;6.70;;;;;;;;;;6308065;22;20026;-62
2023/03/24 10:11:23;;;;;;;8.45;6.15;;;;;;;;;;6280564;22;20045;-63
2023/03/24 10:14:13;;;;;;;10.30;6.30;;;;;;;;;;6307997;22;20011;-63
2023/03/24 10:16:59;;;;;;;8.90;6.85;;;;;;;;;;6307831;22;20094;-62
2023/03/24 10:19:45;;;;;;;8.23;7.25;;;;;;;;;;6308289;22;20373;-63
2023/03/24 10:22:15;;;;;;;9.60;6.70;;;;;;;;;;6307857;22;20467;-63
2023/03/24 10:24:59;;;;;;;8.77;7.03;;;;;;;;;;6308001;22;20038;-62
2023/03/24 10:27:39;;;;;;;10.38;7.55;;;;;;;;;;6307904;22;20019;-62
2023/03/24 10:30:27;;;;;;;8.70;7.28;;;;;;;;;;6307900;22;20015;-63
2023/03/24 10:32:55;;;;;;;10.70;7.32;;;;;;;;;;6307778;22;20094;-63
2023/03/24 10:35:25;;;;;;;10.43;6.88;;;;;;;;;;6280689;22;20015;-62
2023/03/24 10:37:56;;;;;;;8.00;6.72;;;;;;;;;;6280381;22;20039;-62
2023/03/24 10:40:28;;;;;;;9.88;7.22;;;;;;;;;;6308076;22;20033;-62
2023/03/24 10:43:02;;;;;;;8.82;6.95;;;;;;;;;;6307721;22;20060;-62
2023/03/24 10:45:37;;;;;;;7.85;7.03;;;;;;;;;;6307757;22;20122;-62
2023/03/24 10:48:06;;;;;;;10.98;6.95;;;;;;;;;;6307975;22;20104;-62
2023/03/24 10:50:34;;;;;;;9.75;7.00;;;;;;;;;;6307904;22;20026;-61
2023/03/24 10:53:08;;;;;;;10.13;6.88;;;;;;;;;;6307616;22;20020;-63
2023/03/24 10:55:37;;;;;;;11.43;6.55;;;;;;;;;;6307693;22;20086;-63
2023/03/24 10:58:15;;;;;;;8.27;5.88;;;;;;;;;;6280238;22;20050;-63
2023/03/24 11:00:44;;;;;;;7.80;5.95;;;;;;;;;;6280387;22;20016;-63
2023/03/24 11:03:14;;;;;;;15.30;8.95;;;;;;;;;;6307559;22;20065;-62
2023/03/24 11:05:43;;;;;;;7.57;6.22;;;;;;;;;;6307815;22;20015;-62
2023/03/24 11:08:14;;;;;;;9.10;4.88;;;;;;;;;;6307441;22;20011;-63
2023/03/24 11:10:41;;;;;;;7.88;5.35;;;;;;;;;;6307187;22;20053;-62
2023/03/24 11:13:20;;;;;;;7.63;5.53;;;;;;;;;;6307634;22;20068;-62
2023/03/24 11:16:14;;;;;;;8.48;5.78;;;;;;;;;;6307453;22;20510;-63
2023/03/24 11:18:56;;;;;;;9.40;6.65;;;;;;;;;;6277277;22;20480;-64
2023/03/24 11:21:24;;;;;;;8.32;5.93;;;;;;;;;;6307233;22;20023;-64
2023/03/24 11:23:51;;;;;;;7.32;4.75;;;;;;;;;;6307663;22;20042;-63
2023/03/24 11:26:23;;;;;;;7.47;4.80;;;;;;;;;;6280335;22;20023;-62
2023/03/24 11:28:52;;;;;;;8.15;4.85;;;;;;;;;;6307227;22;20015;-63
2023/03/24 11:31:23;;;;;;;7.30;5.35;;;;;;;;;;6307287;22;20025;-62
2023/03/24 11:33:56;;;;;;;9.88;5.40;;;;;;;;;;6307397;22;20011;-62
2023/03/24 11:36:29;;;;;;;7.63;4.82;;;;;;;;;;6307328;22;20030;-62
2023/03/24 11:39:16;;;;;;;8.67;5.23;;;;;;;;;;6307419;22;20065;-62
2023/03/24 11:41:50;;;;;;;9.02;5.30;;;;;;;;;;6307046;22;20015;-63
2023/03/24 11:44:19;;;;;;;13.00;4.90;;;;;;;;;;6307414;22;20019;-63
2023/03/24 11:46:48;;;;;;;5.70;4.70;;;;;;;;;;6307212;22;20019;-62
2023/03/24 11:49:19;;;;;;;7.72;4.90;;;;;;;;;;6307508;22;20012;-62
2023/03/24 11:51:49;;;;;;;8.43;4.50;;;;;;;;;;6279744;22;20019;-63
2023/03/24 11:54:18;;;;;;;7.85;5.50;;;;;;;;;;6307008;22;20019;-63
2023/03/24 11:56:46;;;;;;;7.45;5.20;;;;;;;;;;6306951;22;20065;-64
2023/03/24 11:59:14;;;;;;;6.47;4.85;;;;;;;;;;6307010;22;20019;-62
2023/03/24 12:02:05;;;;;;;7.00;4.90;;;;;;;;;;6306996;22;20072;-63
2023/03/24 12:04:32;;;;;;;8.52;4.82;;;;;;;;;;6250865;22;20441;-63
2023/03/24 12:07:06;;;;;;;5.80;4.50;;;;;;;;;;6306903;22;20015;-62
2023/03/24 12:09:33;;;;;;;7.53;5.13;;;;;;;;;;6307000;22;20018;-62
2023/03/24 12:12:16;;;;;;;6.70;4.85;;;;;;;;;;6279884;22;20016;-63
2023/03/24 12:15:22;;;;;;;6.72;4.65;;;;;;;;;;6279617;22;20059;-62
2023/03/24 12:18:02;;;;;;;10.23;4.15;;;;;;;;;;6182189;23;20020;-62
2023/03/24 12:20:44;;;;;;;5.97;3.60;;;;;;;;;;6157637;23;20017;-62
2023/03/24 12:23:15;;;;;;;5.28;3.42;;;;;;;;;;6267363;22;20385;-63
2023/03/24 12:26:02;;;;;;;7.20;3.60;;;;;;;;;;6306898;22;20012;-63
2023/03/24 12:28:31;;;;;;;5.65;3.67;;;;;;;;;;6306877;22;20457;-64
2023/03/24 12:30:58;;;;;;;6.95;4.38;;;;;;;;;;6306789;22;20056;-63
2023/03/24 12:33:38;;;;;;;4.72;3.40;;;;;;;;;;6306715;22;20091;-63
2023/03/24 12:36:23;;;;;;;6.97;4.03;;;;;;;;;;6306669;22;20601;-62
2023/03/24 12:38:57;;;;;;;8.32;4.35;;;;;;;;;;6307093;22;20011;-63
2023/03/24 12:41:45;;;;;;;7.85;4.88;;;;;;;;;;6306896;22;20042;-63
2023/03/24 12:44:20;;;;;;;7.13;4.82;;;;;;;;;;6245826;22;20076;-63
2023/03/24 12:47:02;;;;;;;5.78;4.50;;;;;;;;;;6306996;22;20046;-63
2023/03/24 12:49:30;;;;;;;6.35;4.80;;;;;;;;;;6306591;22;20023;-63
2023/03/24 12:52:16;;;;;;;10.57;4.75;;;;;;;;;;6306674;22;20023;-63
2023/03/24 12:54:47;;;;;;;11.52;8.65;;;;;;;;;;6306612;22;20035;-62
2023/03/24 12:57:17;;;;;;;14.63;9.95;;;;;;;;;;6306702;22;20089;-62
2023/03/24 12:59:57;;;;;;;6.72;4.53;;;;;;;;;;6306829;22;20019;-62
2023/03/24 13:02:30;;;;;;;8.95;5.07;;;;;;;;;;6279514;22;20011;-62
2023/03/24 13:05:04;;;;;;;7.53;4.43;;;;;;;;;;6305429;22;20510;-63
2023/03/24 13:07:38;;;;;;;8.57;4.65;;;;;;;;;;6278607;22;20030;-63
2023/03/24 13:10:24;;;;;;;5.18;4.38;;;;;;;;;;6305860;22;20107;-64
2023/03/24 13:12:55;;;;;;;6.97;5.30;;;;;;;;;;6305938;22;20022;-62
2023/03/24 13:15:24;;;;;;;6.30;4.38;;;;;;;;;;6305102;22;20015;-63
2023/03/24 13:18:04;;;;;;;7.60;6.07;;;;;;;;;;6305985;22;20621;-62
2023/03/24 13:20:38;;;;;;;7.93;5.47;;;;;;;;;;6305729;22;20035;-61
2023/03/24 13:23:21;;;;;;;6.00;4.65;;;;;;;;;;6279164;22;20656;-61
2023/03/24 13:25:52;;;;;;;7.53;5.30;;;;;;;;;;6278365;22;20015;-67
2023/03/24 13:28:26;;;;;;;8.15;5.30;;;;;;;;;;6305628;22;20043;-62
2023/03/24 13:30:54;;;;;;;7.80;4.40;;;;;;;;;;6277692;22;20021;-62
2023/03/24 13:33:25;;;;;;;5.05;4.18;;;;;;;;;;6306334;22;20397;-62
2023/03/24 13:35:56;;;;;;;5.88;4.88;;;;;;;;;;6279382;22;20456;-62
2023/03/24 13:38:26;;;;;;;5.90;3.70;;;;;;;;;;6307496;22;20521;-63
2023/03/24 13:40:55;;;;;;;7.22;5.03;;;;;;;;;;6307559;22;20099;-64
2023/03/24 13:43:28;;;;;;;7.03;3.92;;;;;;;;;;6307724;22;20449;-62
2023/03/24 13:46:04;;;;;;;4.78;3.67;;;;;;;;;;6307874;22;20045;-62
2023/03/24 13:48:32;;;;;;;5.38;4.07;;;;;;;;;;6308236;22;20383;-62
2023/03/24 13:51:04;;;;;;;6.75;4.55;;;;;;;;;;6306016;22;20551;-62
2023/03/24 13:53:37;;;;;;;5.03;4.10;;;;;;;;;;6308116;22;20484;-62
2023/03/24 13:56:06;;;;;;;6.88;3.80;;;;;;;;;;6306872;22;20197;-61
2023/03/24 13:58:50;;;;;;;4.25;3.70;;;;;;;;;;6307350;22;20011;-62
2023/03/24 14:01:30;;;;;;;6.70;4.40;;;;;;;;;;6307323;22;20091;-62
2023/03/24 14:04:16;;;;;;;5.07;3.67;;;;;;;;;;6307582;22;20015;-62
2023/03/24 14:06:50;;;;;;;5.38;3.13;;;;;;;;;;6308067;22;20015;-62
2023/03/24 14:09:23;;;;;;;5.20;3.60;;;;;;;;;;6308088;22;20022;-62
2023/03/24 14:11:54;;;;;;;8.98;4.50;;;;;;;;;;6280753;22;20031;-62
2023/03/24 14:14:22;;;;;;;7.05;4.00;;;;;;;;;;6308150;22;20045;-62
2023/03/24 14:16:53;;;;;;;6.65;5.40;;;;;;;;;;6255206;22;20042;-62
2023/03/24 14:19:22;;;;;;;6.90;5.00;;;;;;;;;;6307936;22;20019;-62
2023/03/24 14:21:51;;;;;;;7.07;4.07;;;;;;;;;;6308572;22;20035;-62
2023/03/24 14:24:23;;;;;;;6.97;5.20;;;;;;;;;;6280914;22;20061;-62
2023/03/24 14:26:51;;;;;;;5.70;4.40;;;;;;;;;;6307969;22;20011;-62
2023/03/24 14:29:37;;;;;;;4.60;3.67;;;;;;;;;;6307902;22;20441;-62
2023/03/24 14:32:05;;;;;;;7.60;4.10;;;;;;;;;;6307688;22;20015;-62
2023/03/24 14:34:57;;;;;;;6.20;5.32;;;;;;;;;;6307868;22;20026;-62
2023/03/24 14:37:26;;;;;;;4.82;3.20;;;;;;;;;;6307613;22;20019;-62
2023/03/24 14:39:56;;;;;;;5.32;4.13;;;;;;;;;;6307756;22;20082;-62
2023/03/24 14:42:32;;;;;;;7.32;4.30;;;;;;;;;;6307225;22;20400;-63
2023/03/24 14:45:01;;;;;;;7.07;4.47;;;;;;;;;;6307438;22;20035;-61
2023/03/24 14:47:33;;;;;;;5.32;4.22;;;;;;;;;;6307724;22;20026;-62
2023/03/24 14:50:02;;;;;;;5.03;3.13;;;;;;;;;;6307708;22;20015;-61
2023/03/24 14:52:44;;;;;;;6.50;3.33;;;;;;;;;;6307774;22;20046;-64
2023/03/24 14:55:18;;;;;;;3.97;3.10;;;;;;;;;;6308194;22;20026;-63
2023/03/24 14:57:49;;;;;;;7.40;4.57;;;;;;;;;;6307763;22;20103;-62
2023/03/24 15:00:20;;;;;;;5.93;3.50;;;;;;;;;;6307747;22;20082;-62
2023/03/24 15:02:53;;;;;;;6.88;3.40;;;;;;;;;;6307706;22;20019;-63
2023/03/24 15:05:21;;;;;;;4.63;3.40;;;;;;;;;;6280750;22;20018;-62
2023/03/24 15:08:06;;;;;;;6.00;3.58;;;;;;;;;;6307638;22;20022;-61